Time;durP1;ratioP1;P1;durP2;ratioP2;P2;SDS_P1;SDS_P2;PMS_P1;PMS_P2;Temp;Humidity;BMP_temperature;BMP_pressure;BME280_temperature;BME280_humidity;BME280_pressure;Samples;Min_cycle;Max_cycle;Signal;HPM_P1;HPM_P2
2023/10/25 00:00:38;;;;;;;12.05;4.63;;;;;;;15.39;52.18;94552.16;5031626;28;20022;-86
2023/10/25 00:03:03;;;;;;;14.48;5.15;;;;;;;15.38;52.32;94551.41;5031571;28;20022;-86
2023/10/25 00:05:35;;;;;;;11.80;3.47;;;;;;;15.38;52.10;94547.88;5030179;28;20025;-86
2023/10/25 00:08:00;;;;;;;13.82;4.65;;;;;;;15.39;52.15;94530.78;5029865;28;20041;-86
2023/10/25 00:10:25;;;;;;;18.20;4.32;;;;;;;15.39;52.13;94524.47;5030207;28;20031;-85
2023/10/25 00:12:51;;;;;;;11.52;4.78;;;;;;;15.44;51.92;94526.56;5029498;28;20021;-84
2023/10/25 00:15:16;;;;;;;14.27;4.60;;;;;;;15.40;52.32;94543.38;5029395;28;20021;-87
2023/10/25 00:17:42;;;;;;;7.72;4.10;;;;;;;15.37;52.33;94527.72;5012402;28;20038;-84
2023/10/25 00:20:07;;;;;;;12.63;4.30;;;;;;;15.40;52.40;94534.31;5030759;28;20025;-86
2023/10/25 00:22:33;;;;;;;10.55;4.68;;;;;;;15.28;52.60;94536.13;5012472;28;20025;-86
2023/10/25 00:24:58;;;;;;;15.90;4.47;;;;;;;15.22;52.78;94532.50;5013173;28;20026;-86
2023/10/25 00:27:24;;;;;;;13.27;4.53;;;;;;;15.23;52.83;94528.47;5029351;28;20021;-86
2023/10/25 00:29:49;;;;;;;10.27;4.53;;;;;;;15.25;52.96;94525.22;5028856;28;20025;-86
2023/10/25 00:32:15;;;;;;;10.50;5.07;;;;;;;15.28;52.98;94527.03;5011684;28;20545;-85
2023/10/25 00:34:41;;;;;;;14.18;4.97;;;;;;;15.28;53.10;94515.97;5014313;28;20108;-86
2023/10/25 00:37:06;;;;;;;12.82;4.20;;;;;;;15.25;52.91;94512.13;5032396;28;20487;-86
2023/10/25 00:39:32;;;;;;;11.20;4.13;;;;;;;15.29;52.79;94504.41;5031819;28;20098;-86
2023/10/25 00:41:57;;;;;;;14.10;4.93;;;;;;;15.29;53.03;94509.19;5050214;28;20036;-85
2023/10/25 00:44:22;;;;;;;11.20;4.15;;;;;;;15.18;53.01;94504.22;4995237;28;20057;-86
2023/10/25 00:46:48;;;;;;;15.40;5.10;;;;;;;15.11;53.05;94521.22;4996373;28;20053;-86
2023/10/25 00:49:14;;;;;;;16.27;5.18;;;;;;;15.06;53.26;94525.41;4996592;28;20021;-85
2023/10/25 00:51:39;;;;;;;13.13;4.95;;;;;;;15.06;53.44;94539.25;5031968;28;20029;-85
2023/10/25 00:54:05;;;;;;;11.20;4.57;;;;;;;15.04;53.70;94538.97;4995884;28;20030;-86
2023/10/25 00:56:32;;;;;;;11.30;5.25;;;;;;;15.09;53.67;94530.00;5012347;28;20029;-85
2023/10/25 00:58:58;;;;;;;14.90;5.05;;;;;;;14.95;53.44;94524.44;5012193;28;20034;-86
2023/10/25 01:01:26;;;;;;;10.70;4.70;;;;;;;14.83;53.70;94498.56;5011633;28;20109;-85
2023/10/25 01:03:52;;;;;;;13.80;4.35;;;;;;;14.89;53.60;94499.44;5028829;28;20039;-86
2023/10/25 01:06:18;;;;;;;18.30;5.43;;;;;;;14.84;53.89;94498.09;5011093;28;20101;-85
2023/10/25 01:08:44;;;;;;;11.95;4.63;;;;;;;14.71;53.94;94483.75;4995475;28;20026;-86
2023/10/25 01:11:09;;;;;;;13.05;4.70;;;;;;;14.66;54.16;94489.94;4993924;28;20033;-85
2023/10/25 01:13:35;;;;;;;15.00;5.70;;;;;;;14.71;54.13;94485.75;5028178;28;20040;-85
2023/10/25 01:16:00;;;;;;;11.00;4.97;;;;;;;14.83;54.10;94506.88;5027910;28;20053;-84
2023/10/25 01:18:26;;;;;;;11.25;4.68;;;;;;;14.78;54.36;94490.91;5011381;28;20021;-85
2023/10/25 01:20:51;;;;;;;12.50;3.85;;;;;;;14.77;53.79;94475.56;4996040;28;20032;-86
2023/10/25 01:23:16;;;;;;;14.45;4.15;;;;;;;14.84;53.77;94478.72;5011090;28;20017;-86
2023/10/25 01:25:43;;;;;;;13.00;5.10;;;;;;;14.95;53.55;94485.69;4995815;28;20391;-86
2023/10/25 01:28:08;;;;;;;13.02;5.07;;;;;;;14.96;53.66;94490.75;5010537;28;20032;-86
2023/10/25 01:30:34;;;;;;;16.55;5.25;;;;;;;14.95;53.87;94483.69;4995258;28;20026;-86
2023/10/25 01:32:59;;;;;;;10.20;4.10;;;;;;;15.02;53.38;94477.75;5027446;28;20025;-87
2023/10/25 01:35:25;;;;;;;15.10;4.53;;;;;;;15.06;53.53;94489.41;5011535;28;20397;-85
2023/10/25 01:37:51;;;;;;;10.05;4.20;;;;;;;15.10;53.18;94486.47;5011965;28;20022;-86
2023/10/25 01:40:16;;;;;;;13.10;4.75;;;;;;;15.17;53.41;94499.94;5010470;28;20028;-86
2023/10/25 01:42:43;;;;;;;10.23;4.53;;;;;;;15.15;53.43;94502.41;5011793;28;20039;-86
2023/10/25 01:45:09;;;;;;;9.80;4.13;;;;;;;15.17;53.35;94511.00;5004132;28;20400;-84
2023/10/25 01:47:34;;;;;;;13.20;3.95;;;;;;;15.10;53.03;94490.00;5011831;28;20037;-86
2023/10/25 01:49:59;;;;;;;15.00;4.68;;;;;;;15.17;53.22;94501.94;5028328;28;20436;-86
2023/10/25 01:52:25;;;;;;;12.95;4.78;;;;;;;15.24;53.16;94502.31;5028780;28;20092;-85
2023/10/25 01:54:50;;;;;;;8.18;5.40;;;;;;;15.26;52.97;94521.22;5011168;28;20108;-87
2023/10/25 01:57:16;;;;;;;16.20;4.47;;;;;;;15.25;52.95;94512.13;5028583;28;20029;-86
2023/10/25 01:59:42;;;;;;;12.52;4.63;;;;;;;15.29;53.04;94509.19;5012437;28;20033;-86
2023/10/25 02:02:09;;;;;;;14.98;4.75;;;;;;;15.30;53.09;94522.53;5011120;28;20028;-85
2023/10/25 02:04:34;;;;;;;15.95;5.35;;;;;;;15.27;53.15;94520.75;4995355;28;20196;-85
2023/10/25 02:06:59;;;;;;;15.20;5.15;;;;;;;15.31;53.23;94521.34;5010233;28;20059;-86
2023/10/25 02:09:25;;;;;;;12.27;4.28;;;;;;;15.28;53.29;94500.13;5010915;28;20037;-84
2023/10/25 02:11:50;;;;;;;12.43;5.35;;;;;;;15.28;53.26;94527.81;5009678;28;20105;-85
2023/10/25 02:14:16;;;;;;;21.00;4.80;;;;;;;15.29;53.20;94520.25;4993847;28;20053;-85
2023/10/25 02:16:41;;;;;;;11.18;4.70;;;;;;;15.32;53.22;94508.25;4994480;28;20021;-85
2023/10/25 02:19:07;;;;;;;13.57;4.82;;;;;;;15.33;53.04;94495.91;4993702;28;20034;-86
2023/10/25 02:21:35;;;;;;;10.48;4.63;;;;;;;15.33;53.01;94482.06;5010071;28;20022;-85
2023/10/25 02:24:05;;;;;;;17.58;5.63;;;;;;;15.26;53.21;94477.69;5010098;28;20026;-85
2023/10/25 02:26:30;;;;;;;8.85;3.83;;;;;;;15.29;53.26;94473.94;5027403;28;20455;-85
2023/10/25 02:28:56;;;;;;;10.18;4.47;;;;;;;15.27;53.28;94448.75;5010041;28;20044;-85
2023/10/25 02:31:21;;;;;;;10.98;4.22;;;;;;;15.03;53.73;94435.03;4993833;28;20025;-85
2023/10/25 02:33:47;;;;;;;12.93;4.22;;;;;;;15.14;53.61;94451.06;4993823;28;20432;-85
2023/10/25 02:36:12;;;;;;;10.80;4.10;;;;;;;15.13;53.65;94444.75;4992945;28;20045;-85
2023/10/25 02:38:38;;;;;;;10.65;4.38;;;;;;;15.13;53.65;94422.59;4994862;28;20060;-86
2023/10/25 02:41:04;;;;;;;11.40;4.07;;;;;;;15.15;53.67;94422.13;4996314;28;20380;-85
2023/10/25 02:43:29;;;;;;;13.15;4.45;;;;;;;15.07;53.72;94396.81;5028827;28;20075;-84
2023/10/25 02:46:07;;;;;;;13.57;4.63;;;;;;;14.99;53.95;94398.47;5029441;28;20035;-85
2023/10/25 02:48:32;;;;;;;10.10;4.50;;;;;;;14.93;54.13;94397.63;5030431;28;20123;-84
2023/10/25 02:51:01;;;;;;;12.35;4.20;;;;;;;14.89;54.30;94405.34;5029137;28;20531;-84
2023/10/25 02:53:26;;;;;;;10.05;4.30;;;;;;;14.85;54.25;94408.31;5012775;28;20060;-85
2023/10/25 02:55:58;;;;;;;19.65;5.40;;;;;;;14.88;54.46;94406.59;5030399;28;20491;-86
2023/10/25 02:58:24;;;;;;;13.05;4.65;;;;;;;14.96;54.44;94420.78;5012090;28;20111;-85
2023/10/25 03:00:49;;;;;;;10.90;4.22;;;;;;;14.95;53.95;94408.19;5030857;28;20088;-85
2023/10/25 03:03:15;;;;;;;13.38;3.80;;;;;;;15.01;54.25;94403.53;5029300;28;20040;-86
2023/10/25 03:05:40;;;;;;;12.65;4.53;;;;;;;15.05;54.16;94402.09;5030460;28;20025;-85
2023/10/25 03:08:06;;;;;;;10.48;4.35;;;;;;;15.09;54.03;94410.97;5012552;28;20108;-84
2023/10/25 03:10:31;;;;;;;11.55;4.55;;;;;;;15.15;54.08;94413.81;5028936;28;20159;-84
2023/10/25 03:12:57;;;;;;;14.93;5.10;;;;;;;15.28;53.73;94400.44;5012964;28;20103;-84
2023/10/25 03:15:22;;;;;;;12.05;4.85;;;;;;;15.26;53.59;94413.25;5012022;28;20055;-85
2023/10/25 03:17:47;;;;;;;11.15;4.55;;;;;;;15.27;53.65;94412.00;5013585;28;20028;-85
2023/10/25 03:20:13;;;;;;;15.38;5.18;;;;;;;15.32;53.86;94419.63;5012248;28;20025;-85
2023/10/25 03:22:38;;;;;;;16.23;6.00;;;;;;;15.27;53.72;94417.53;5029338;28;20029;-86
2023/10/25 03:25:04;;;;;;;13.18;5.47;;;;;;;15.28;53.47;94405.22;5012012;28;20496;-85
2023/10/25 03:27:30;;;;;;;11.90;5.60;;;;;;;15.25;53.98;94404.16;5029048;28;20036;-85
2023/10/25 03:29:55;;;;;;;13.52;7.07;;;;;;;15.25;53.77;94397.84;5046704;28;20388;-86
2023/10/25 03:32:20;;;;;;;14.00;6.70;;;;;;;15.26;53.76;94383.53;5027590;28;20025;-86
2023/10/25 03:34:47;;;;;;;15.00;6.05;;;;;;;15.20;53.90;94412.41;5050432;28;20028;-86
2023/10/25 03:37:13;;;;;;;17.90;6.55;;;;;;;15.12;54.02;94410.00;5033039;28;20033;-86
2023/10/25 03:39:39;;;;;;;11.90;5.90;;;;;;;15.13;54.08;94403.22;5033973;28;20055;-85
2023/10/25 03:42:04;;;;;;;14.20;5.97;;;;;;;15.11;53.98;94388.34;5015828;28;20033;-85
2023/10/25 03:44:30;;;;;;;15.38;5.18;;;;;;;15.09;54.19;94390.84;5032001;28;20032;-84
2023/10/25 03:46:55;;;;;;;16.00;6.18;;;;;;;15.13;53.78;94397.69;5032135;28;20048;-86
2023/10/25 03:49:21;;;;;;;20.83;6.95;;;;;;;15.14;54.07;94410.31;5032649;28;20075;-85
2023/10/25 03:51:46;;;;;;;16.10;7.18;;;;;;;15.12;53.92;94401.69;5016129;28;20029;-85
2023/10/25 03:54:11;;;;;;;19.55;6.82;;;;;;;15.13;53.92;94388.59;5032128;28;20462;-85
2023/10/25 03:56:37;;;;;;;19.95;7.20;;;;;;;15.11;54.15;94372.50;5017584;28;20054;-86
2023/10/25 03:59:02;;;;;;;14.77;5.45;;;;;;;15.07;54.13;94380.22;5015510;28;20025;-86
2023/10/25 04:01:28;;;;;;;15.25;6.20;;;;;;;15.06;54.00;94373.16;5017199;28;20390;-84
2023/10/25 04:03:53;;;;;;;14.90;6.32;;;;;;;15.02;54.10;94380.88;5031877;28;20040;-82
2023/10/25 04:06:18;;;;;;;21.00;7.25;;;;;;;15.07;54.28;94385.00;5015820;28;20111;-85
2023/10/25 04:08:44;;;;;;;12.80;6.95;;;;;;;15.01;54.05;94384.91;5015671;28;20029;-86
2023/10/25 04:11:09;;;;;;;17.88;8.35;;;;;;;15.09;54.35;94388.81;5050094;28;20025;-85
2023/10/25 04:13:35;;;;;;;16.35;7.82;;;;;;;15.08;54.41;94392.84;5032769;28;20064;-86
2023/10/25 04:16:02;;;;;;;18.48;7.03;;;;;;;15.13;54.06;94396.91;5050056;28;20398;-85
2023/10/25 04:18:29;;;;;;;14.60;6.68;;;;;;;15.12;54.10;94387.84;5016408;28;20021;-86
2023/10/25 04:20:56;;;;;;;13.35;5.97;;;;;;;15.08;53.99;94381.78;5014747;28;20029;-85
2023/10/25 04:23:23;;;;;;;17.63;6.43;;;;;;;15.09;54.00;94393.59;5016051;28;20036;-85
2023/10/25 04:25:49;;;;;;;13.70;6.40;;;;;;;15.05;53.87;94384.72;5015238;28;20029;-85
2023/10/25 04:28:14;;;;;;;19.85;6.18;;;;;;;15.09;53.87;94372.22;5032629;28;20078;-85
2023/10/25 04:30:40;;;;;;;19.95;7.38;;;;;;;15.06;53.99;94373.16;5034443;28;20025;-86
2023/10/25 04:33:06;;;;;;;14.05;5.30;;;;;;;15.03;54.22;94357.53;5049621;28;20068;-84
2023/10/25 04:35:32;;;;;;;15.30;6.05;;;;;;;14.96;54.56;94368.97;5015104;28;20056;-84
2023/10/25 04:37:57;;;;;;;21.90;6.60;;;;;;;15.04;54.08;94361.81;5031002;28;20033;-82
2023/10/25 04:40:22;;;;;;;15.52;5.97;;;;;;;14.98;54.44;94365.75;5015696;28;20494;-85
2023/10/25 04:42:53;;;;;;;12.82;5.45;;;;;;;14.95;54.15;94333.47;5030953;28;20033;-85
2023/10/25 04:45:19;;;;;;;14.18;5.85;;;;;;;14.89;54.37;94338.91;5030795;28;20063;-84
2023/10/25 04:47:44;;;;;;;18.63;5.95;;;;;;;14.90;54.43;94334.91;5031422;28;20021;-84
2023/10/25 04:50:09;;;;;;;17.88;6.75;;;;;;;14.87;54.56;94342.19;5031514;28;20553;-82
2023/10/25 04:52:35;;;;;;;13.82;6.35;;;;;;;14.92;54.58;94342.75;5031993;28;20037;-83
2023/10/25 04:55:00;;;;;;;16.27;6.60;;;;;;;14.93;54.48;94339.50;5014460;28;20031;-83
2023/10/25 04:57:26;;;;;;;20.80;6.85;;;;;;;14.91;54.77;94336.47;5015292;28;20118;-83
2023/10/25 04:59:52;;;;;;;19.45;6.30;;;;;;;14.96;54.99;94333.00;5030862;28;20104;-84
2023/10/25 05:02:18;;;;;;;15.52;6.30;;;;;;;15.00;54.64;94319.72;5015002;28;20135;-84
2023/10/25 05:04:44;;;;;;;12.40;5.53;;;;;;;14.97;54.84;94295.78;5030602;28;20517;-84
2023/10/25 05:07:09;;;;;;;15.75;6.97;;;;;;;15.02;54.80;94333.84;5049775;28;20402;-84
2023/10/25 05:09:35;;;;;;;15.45;5.78;;;;;;;14.92;54.91;94307.53;5031300;28;20032;-83
2023/10/25 05:12:03;;;;;;;12.45;4.93;;;;;;;14.95;55.12;94306.56;5048499;28;20479;-79
2023/10/25 05:14:30;;;;;;;19.50;6.88;;;;;;;14.97;54.86;94329.00;5015134;28;20131;-84
2023/10/25 05:16:55;;;;;;;15.73;6.95;;;;;;;15.05;54.92;94330.13;5012954;28;20039;-83
2023/10/25 05:19:21;;;;;;;17.88;6.90;;;;;;;15.06;55.08;94345.47;5048895;28;20029;-84
2023/10/25 05:21:50;;;;;;;14.85;7.10;;;;;;;15.06;54.64;94347.50;5030168;28;20040;-83
2023/10/25 05:24:16;;;;;;;17.27;7.88;;;;;;;15.02;54.82;94308.16;5031596;28;20029;-83
2023/10/25 05:26:42;;;;;;;17.40;7.65;;;;;;;15.04;54.83;94336.91;5014445;28;20414;-84
2023/10/25 05:29:08;;;;;;;22.00;7.38;;;;;;;15.13;54.27;94311.84;5013920;28;20166;-85
2023/10/25 05:31:34;;;;;;;20.55;7.18;;;;;;;15.07;54.17;94305.47;5031131;28;20059;-84
2023/10/25 05:34:01;;;;;;;18.63;7.60;;;;;;;15.07;54.50;94316.56;5030132;28;20033;-83
2023/10/25 05:36:27;;;;;;;13.30;6.50;;;;;;;15.07;54.35;94311.00;5031372;28;20075;-83
2023/10/25 05:38:52;;;;;;;20.73;7.25;;;;;;;15.07;54.35;94316.56;5030283;28;20474;-84
2023/10/25 05:41:22;;;;;;;17.42;7.72;;;;;;;15.10;54.57;94315.59;5030915;28;20029;-85
2023/10/25 05:43:57;;;;;;;17.80;7.85;;;;;;;15.13;54.70;94328.47;5030734;28;20029;-85
2023/10/25 05:46:22;;;;;;;17.02;6.88;;;;;;;15.12;54.55;94329.72;5030756;28;20052;-86
2023/10/25 05:48:48;;;;;;;15.70;6.68;;;;;;;15.14;53.95;94316.19;5048692;28;20127;-85
2023/10/25 05:51:13;;;;;;;21.95;7.28;;;;;;;15.13;54.35;94325.69;5013053;28;20013;-84
2023/10/25 05:53:39;;;;;;;18.88;7.22;;;;;;;15.10;54.29;94317.59;5030943;28;20495;-85
2023/10/25 05:56:05;;;;;;;19.63;7.32;;;;;;;15.14;54.35;94343.09;5028652;28;20052;-83
2023/10/25 05:58:30;;;;;;;20.65;7.78;;;;;;;15.16;54.35;94359.22;5028911;28;20021;-86
2023/10/25 06:00:56;;;;;;;17.92;7.30;;;;;;;15.21;54.33;94358.53;5029514;28;20029;-87
2023/10/25 06:03:22;;;;;;;16.25;8.10;;;;;;;15.23;54.25;94370.66;5013852;28;20021;-82
2023/10/25 06:05:54;;;;;;;15.27;7.45;;;;;;;15.33;53.77;94355.44;5029908;28;20017;-86
2023/10/25 06:08:20;;;;;;;22.65;8.02;;;;;;;15.33;53.67;94346.38;5012801;28;20036;-83
2023/10/25 06:10:46;;;;;;;14.02;7.78;;;;;;;15.28;53.72;94341.53;5012985;28;20021;-85
2023/10/25 06:13:12;;;;;;;25.40;8.00;;;;;;;15.29;53.72;94327.19;5047128;28;20035;-88
2023/10/25 06:15:37;;;;;;;24.00;9.25;;;;;;;15.29;53.72;94340.28;5013501;28;20518;-83
2023/10/25 06:18:07;;;;;;;20.20;7.40;;;;;;;15.26;54.09;94350.31;5029333;28;20028;-85
2023/10/25 06:20:33;;;;;;;18.83;7.78;;;;;;;15.29;54.25;94351.34;5036042;28;20082;-83
2023/10/25 06:22:59;;;;;;;15.55;7.63;;;;;;;15.32;54.34;94342.84;5012363;28;20029;-85
2023/10/25 06:25:24;;;;;;;22.02;8.95;;;;;;;15.39;54.10;94347.22;5029697;28;20044;-87
2023/10/25 06:27:50;;;;;;;21.50;8.75;;;;;;;15.47;53.95;94334.47;5030057;28;20100;-87
2023/10/25 06:30:15;;;;;;;21.65;10.13;;;;;;;15.53;54.12;94349.16;5029288;28;20468;-86
2023/10/25 06:32:40;;;;;;;19.63;10.23;;;;;;;15.56;54.26;94353.00;5030453;28;20027;-86
2023/10/25 06:35:06;;;;;;;23.30;11.02;;;;;;;15.62;54.32;94337.22;5011930;28;20430;-86
2023/10/25 06:37:32;;;;;;;24.77;11.25;;;;;;;15.75;53.65;94342.44;5029320;28;20037;-86
2023/10/25 06:39:58;;;;;;;21.27;10.35;;;;;;;15.76;53.65;94341.94;5028974;28;20013;-86
2023/10/25 06:42:23;;;;;;;27.80;10.80;;;;;;;15.82;53.83;94342.00;5012975;28;20139;-85
2023/10/25 06:44:50;;;;;;;29.73;11.18;;;;;;;15.86;53.42;94334.25;5029720;28;20025;-86
2023/10/25 06:47:16;;;;;;;25.35;11.55;;;;;;;15.94;53.40;94346.44;5012228;28;20106;-86
2023/10/25 06:49:42;;;;;;;25.67;9.75;;;;;;;15.90;53.37;94330.03;5047862;28;20017;-86
2023/10/25 06:52:08;;;;;;;19.38;10.18;;;;;;;15.98;53.45;94340.69;5012295;28;20029;-86
2023/10/25 06:54:34;;;;;;;22.75;9.77;;;;;;;16.03;53.48;94357.38;5030026;28;20513;-85
2023/10/25 06:57:00;;;;;;;21.75;9.40;;;;;;;16.11;52.70;94355.69;5028422;28;20238;-86
2023/10/25 06:59:25;;;;;;;22.40;8.80;;;;;;;16.16;52.91;94360.56;5047153;28;20412;-85
2023/10/25 07:02:00;;;;;;;18.15;9.43;;;;;;;16.20;52.98;94352.78;5011988;28;20032;-87
2023/10/25 07:04:27;;;;;;;25.23;13.70;;;;;;;16.32;52.68;94344.59;5028883;28;20033;-87
2023/10/25 07:06:54;;;;;;;33.60;22.52;;;;;;;16.37;52.78;94352.22;5013099;28;20032;-86
2023/10/25 07:09:19;;;;;;;45.47;29.60;;;;;;;16.42;52.47;94357.06;5027439;28;20033;-87
2023/10/25 07:11:45;;;;;;;51.25;31.90;;;;;;;16.46;52.34;94361.16;5014217;28;20071;-86
2023/10/25 07:14:10;;;;;;;43.15;28.73;;;;;;;16.53;52.03;94364.72;5011847;28;20327;-87
2023/10/25 07:16:36;;;;;;;34.88;23.15;;;;;;;16.56;52.23;94358.94;5028722;28;20065;-85
2023/10/25 07:19:01;;;;;;;29.45;14.07;;;;;;;16.67;51.17;94361.06;5028243;28;20025;-86
2023/10/25 07:21:27;;;;;;;26.95;16.10;;;;;;;16.80;51.45;94366.25;5046550;28;20025;-87
2023/10/25 07:23:53;;;;;;;30.13;16.83;;;;;;;16.88;51.43;94375.69;5029207;28;20083;-87
2023/10/25 07:26:18;;;;;;;29.98;19.42;;;;;;;16.90;51.17;94370.38;5045223;28;20037;-86
2023/10/25 07:28:44;;;;;;;32.05;18.90;;;;;;;16.89;51.29;94377.97;5047046;28;20102;-87
2023/10/25 07:31:09;;;;;;;27.27;16.30;;;;;;;16.94;51.03;94379.25;5011155;28;20407;-87
2023/10/25 07:33:34;;;;;;;31.27;15.18;;;;;;;16.91;51.21;94358.78;5012692;28;20119;-87
2023/10/25 07:36:00;;;;;;;28.45;12.13;;;;;;;17.07;51.05;94376.84;5011553;28;20037;-87
2023/10/25 07:38:25;;;;;;;29.48;11.30;;;;;;;17.10;51.06;94373.09;5028656;28;20024;-87
2023/10/25 07:40:51;;;;;;;26.33;12.05;;;;;;;17.19;50.81;94374.91;5028383;28;20470;-87
2023/10/25 07:43:16;;;;;;;22.85;10.15;;;;;;;17.26;50.53;94377.22;5027955;28;20024;-87
2023/10/25 07:45:41;;;;;;;22.17;10.50;;;;;;;17.25;50.15;94365.34;5046886;28;20055;-87
2023/10/25 07:48:07;;;;;;;27.10;9.88;;;;;;;17.28;50.11;94376.75;5027283;28;20053;-87
2023/10/25 07:50:34;;;;;;;24.30;9.82;;;;;;;17.34;50.10;94372.00;5012677;28;20499;-83
2023/10/25 07:53:00;;;;;;;20.25;9.90;;;;;;;17.40;49.79;94379.09;5045771;28;20048;-87
2023/10/25 07:55:25;;;;;;;22.75;9.43;;;;;;;17.50;49.57;94388.78;5028704;28;20475;-87
2023/10/25 07:57:51;;;;;;;23.23;7.78;;;;;;;17.51;48.27;94375.66;5011932;28;20112;-87
2023/10/25 08:00:16;;;;;;;23.10;8.93;;;;;;;17.50;49.06;94371.34;5045868;28;20511;-87
2023/10/25 08:02:41;;;;;;;20.13;8.35;;;;;;;17.52;48.86;94371.59;5046515;28;20044;-87
2023/10/25 08:05:07;;;;;;;20.40;8.48;;;;;;;17.55;49.00;94378.19;5045643;28;20170;-87
2023/10/25 08:07:36;;;;;;;21.50;7.57;;;;;;;17.43;49.37;94378.13;5046877;28;20395;-86
2023/10/25 08:10:03;;;;;;;23.48;8.40;;;;;;;17.51;49.47;94393.09;5032930;28;20123;-87
2023/10/25 08:12:29;;;;;;;25.80;8.50;;;;;;;17.59;49.11;94398.16;5029788;28;20036;-88
2023/10/25 08:14:55;;;;;;;34.10;8.48;;;;;;;17.63;49.06;94402.25;5028354;28;20020;-86
2023/10/25 08:17:20;;;;;;;26.73;9.82;;;;;;;17.69;48.88;94399.50;5012221;28;20506;-87
2023/10/25 08:19:45;;;;;;;30.67;10.40;;;;;;;17.77;48.59;94395.78;5029917;28;20104;-87
2023/10/25 08:22:11;;;;;;;25.58;9.05;;;;;;;17.83;48.67;94392.28;5032121;28;20110;-87
2023/10/25 08:24:39;;;;;;;27.85;12.85;;;;;;;17.89;48.82;94407.75;5016466;28;20428;-87
2023/10/25 08:27:04;;;;;;;20.05;8.45;;;;;;;17.90;47.61;94408.50;5031276;28;20103;-87
2023/10/25 08:29:30;;;;;;;26.05;8.50;;;;;;;17.97;47.52;94402.47;5015786;28;20112;-87
2023/10/25 08:31:55;;;;;;;26.20;8.00;;;;;;;18.07;47.68;94406.56;5031341;28;20057;-88
2023/10/25 08:34:21;;;;;;;27.33;9.90;;;;;;;18.14;47.88;94406.09;5032041;28;20021;-87
2023/10/25 08:36:46;;;;;;;23.10;8.75;;;;;;;18.24;47.78;94417.78;5028188;28;20053;-87
2023/10/25 08:39:11;;;;;;;21.70;8.27;;;;;;;18.36;47.59;94418.56;5028839;28;20087;-87
2023/10/25 08:41:37;;;;;;;21.15;8.55;;;;;;;18.46;47.68;94405.94;5028475;28;20104;-87
2023/10/25 08:44:03;;;;;;;21.58;8.57;;;;;;;18.60;47.07;94412.56;5027728;28;20518;-86
2023/10/25 08:46:31;;;;;;;33.38;9.55;;;;;;;18.68;46.60;94417.16;5028873;28;20053;-87
2023/10/25 08:48:56;;;;;;;25.25;9.93;;;;;;;18.80;46.62;94409.59;5027455;28;20499;-87
2023/10/25 08:51:22;;;;;;;24.38;8.80;;;;;;;18.94;46.42;94405.06;5029150;28;20113;-86
2023/10/25 08:53:49;;;;;;;28.40;9.50;;;;;;;19.08;46.02;94401.28;5027438;28;20045;-87
2023/10/25 08:56:15;;;;;;;36.72;10.43;;;;;;;19.18;45.98;94407.38;5012085;28;20116;-87
2023/10/25 08:58:40;;;;;;;25.38;8.80;;;;;;;19.33;46.05;94413.47;5028948;28;20038;-86
2023/10/25 09:01:05;;;;;;;25.70;9.27;;;;;;;19.42;45.00;94410.41;5027800;28;20452;-87
2023/10/25 09:03:34;;;;;;;25.42;9.60;;;;;;;19.54;44.64;94417.50;5028215;28;20025;-87
2023/10/25 09:06:00;;;;;;;29.40;9.80;;;;;;;19.71;44.58;94405.59;5028237;28;20480;-87
2023/10/25 09:08:26;;;;;;;24.27;8.80;;;;;;;19.93;43.70;94407.56;5028314;28;20065;-87
2023/10/25 09:11:05;;;;;;;21.02;7.57;;;;;;;20.08;43.06;94414.38;5010679;28;20049;-86
2023/10/25 09:13:35;;;;;;;28.00;7.10;;;;;;;20.52;42.04;94403.56;5012584;28;20037;-86
2023/10/25 09:16:11;;;;;;;23.83;7.75;;;;;;;20.71;42.25;94398.16;5011104;28;20471;-87
2023/10/25 09:18:38;;;;;;;21.27;7.25;;;;;;;21.37;40.99;94418.56;5028155;28;20033;-87
2023/10/25 09:21:04;;;;;;;28.10;6.80;;;;;;;22.20;39.00;94410.69;5028470;28;20018;-86
2023/10/25 09:23:30;;;;;;;23.20;7.13;;;;;;;22.97;37.77;94413.78;5009977;28;20112;-87
2023/10/25 09:25:58;;;;;;;21.35;7.60;;;;;;;23.34;37.08;94417.84;5029136;28;20076;-87
2023/10/25 09:28:28;;;;;;;22.50;5.05;;;;;;;23.35;34.67;94405.34;5026529;28;20116;-87
2023/10/25 09:30:58;;;;;;;25.95;6.20;;;;;;;23.28;35.10;94406.72;5010695;28;20496;-86
2023/10/25 09:33:24;;;;;;;24.90;6.60;;;;;;;23.60;34.04;94400.34;5029378;28;20065;-87
2023/10/25 09:35:51;;;;;;;21.75;4.00;;;;;;;23.81;33.61;94394.91;5027303;28;20056;-87
2023/10/25 09:38:17;;;;;;;27.02;4.63;;;;;;;23.77;33.31;94388.84;5028356;28;20037;-86
2023/10/25 09:40:43;;;;;;;34.15;4.45;;;;;;;25.28;31.16;94391.41;5026166;28;20413;-87
2023/10/25 09:43:18;;;;;;;34.50;6.03;;;;;;;26.63;28.78;94385.13;5027610;28;20029;-87
2023/10/25 09:45:49;;;;;;;25.88;6.85;;;;;;;27.38;27.61;94377.50;5026215;28;20068;-87
2023/10/25 09:48:15;;;;;;;26.23;5.03;;;;;;;27.68;27.48;94368.31;5010800;28;20029;-86
2023/10/25 09:50:44;;;;;;;18.90;3.58;;;;;;;27.94;26.79;94376.44;5010361;28;20325;-87
2023/10/25 09:53:20;;;;;;;25.42;4.35;;;;;;;28.96;25.59;94371.50;5026535;28;20021;-87
2023/10/25 09:55:54;;;;;;;26.65;4.30;;;;;;;29.90;24.43;94382.44;5011190;28;20359;-87
2023/10/25 09:58:22;;;;;;;25.70;4.55;;;;;;;30.69;23.35;94362.09;5026350;28;20478;-86
2023/10/25 10:00:48;;;;;;;30.10;5.30;;;;;;;31.08;22.95;94366.72;5015794;28;20408;-84
2023/10/25 10:03:26;;;;;;;26.50;4.95;;;;;;;31.44;22.39;94360.34;5010566;28;20041;-85
2023/10/25 10:06:08;;;;;;;27.50;4.55;;;;;;;31.39;22.38;94369.91;5028224;28;20033;-87
2023/10/25 10:09:27;;;;;;;30.48;5.15;;;;;;;32.01;22.44;94369.72;5027657;28;20057;-86
2023/10/25 10:12:02;;;;;;;26.00;4.65;;;;;;;30.55;23.14;94355.94;4985711;28;20498;-86
2023/10/25 10:14:35;;;;;;;29.10;4.53;;;;;;;29.48;24.69;94348.38;5025264;28;20041;-85
2023/10/25 10:17:04;;;;;;;27.92;5.03;;;;;;;28.63;25.64;94353.72;5010701;28;20421;-85
2023/10/25 10:19:36;;;;;;;28.60;4.60;;;;;;;28.35;26.14;94334.19;5027343;28;20397;-87
2023/10/25 10:22:01;;;;;;;31.02;4.85;;;;;;;28.11;26.38;94327.81;5027404;28;20025;-85
2023/10/25 10:24:49;;;;;;;28.63;5.10;;;;;;;27.79;26.84;94334.06;5026067;28;20045;-86
2023/10/25 10:27:16;;;;;;;26.02;4.53;;;;;;;27.32;27.65;94331.78;5010117;28;20112;-86
2023/10/25 10:29:43;;;;;;;24.48;4.30;;;;;;;27.24;27.87;94318.44;5010157;28;20359;-88
2023/10/25 10:32:09;;;;;;;29.10;4.53;;;;;;;28.06;26.92;94314.66;5027321;28;20171;-87
2023/10/25 10:34:38;;;;;;;42.03;5.32;;;;;;;27.93;26.94;94309.19;5027770;28;20040;-88
2023/10/25 10:37:08;;;;;;;25.80;4.88;;;;;;;27.86;27.05;94302.25;5029101;28;20116;-88
2023/10/25 10:39:34;;;;;;;25.42;5.28;;;;;;;27.12;27.80;94297.50;5030249;28;20115;-88
2023/10/25 10:42:01;;;;;;;25.70;4.97;;;;;;;26.56;29.11;94292.84;5028828;28;20519;-87
2023/10/25 10:44:28;;;;;;;27.35;4.90;;;;;;;25.99;29.63;94296.50;5012769;28;20021;-88
2023/10/25 10:46:54;;;;;;;36.70;6.38;;;;;;;25.87;30.07;94284.06;5029444;28;20098;-88
2023/10/25 10:49:23;;;;;;;28.50;5.65;;;;;;;25.69;30.56;94280.13;5028775;28;20025;-88
2023/10/25 10:51:49;;;;;;;35.15;4.95;;;;;;;25.39;31.12;94283.50;5031326;28;20021;-87
2023/10/25 10:54:14;;;;;;;20.20;3.95;;;;;;;25.18;31.35;94285.59;5028735;28;20084;-87
2023/10/25 10:56:40;;;;;;;28.65;5.10;;;;;;;25.02;31.61;94287.47;5029525;28;20133;-86
2023/10/25 10:59:06;;;;;;;28.98;4.20;;;;;;;24.62;32.10;94282.00;5028699;28;20025;-88
2023/10/25 11:01:32;;;;;;;23.95;4.97;;;;;;;24.40;32.70;94271.25;5029761;28;20029;-87
2023/10/25 11:03:58;;;;;;;29.88;6.60;;;;;;;24.46;32.55;94283.13;5028830;28;20392;-86
2023/10/25 11:06:26;;;;;;;34.78;4.90;;;;;;;24.20;33.13;94272.66;5029158;28;20514;-85
2023/10/25 11:08:52;;;;;;;26.63;4.53;;;;;;;24.03;33.24;94268.19;5012428;28;20032;-86
2023/10/25 11:11:21;;;;;;;33.03;5.38;;;;;;;23.88;33.72;94267.22;5028137;28;20044;-88
2023/10/25 11:13:48;;;;;;;28.00;4.13;;;;;;;23.67;33.72;94253.09;5029972;28;20043;-87
2023/10/25 11:16:14;;;;;;;33.13;5.90;;;;;;;23.47;34.15;94249.59;5028224;28;20029;-88
2023/10/25 11:18:39;;;;;;;25.45;4.22;;;;;;;23.35;34.04;94264.38;5029523;28;20470;-87
2023/10/25 11:21:05;;;;;;;23.90;3.92;;;;;;;23.12;34.46;94280.84;5028272;28;20055;-88